Time;durP1;ratioP1;P1;durP2;ratioP2;P2;SDS_P1;SDS_P2;PMS_P1;PMS_P2;Temp;Humidity;BMP_temperature;BMP_pressure;BME280_temperature;BME280_humidity;BME280_pressure;Samples;Min_cycle;Max_cycle;Signal;HPM_P1;HPM_P2
2022/02/04 00:31:31;;;;;;;4.57;2.78;;;8.90;74.40;;;;;;20973743;28;20029;-74
2022/02/04 00:41:35;;;;;;;5.78;2.90;;;8.90;74.40;;;;;;20957641;28;20090;-75
2022/02/04 01:32:52;;;;;;;3.90;2.65;;;8.90;74.40;;;;;;20956542;28;20032;-75
2022/02/04 01:42:52;;;;;;;4.22;2.30;;;8.90;74.40;;;;;;20967959;28;20462;-74
2022/02/04 01:52:57;;;;;;;4.60;2.85;;;8.90;74.40;;;;;;20982563;28;20059;-73
2022/02/04 02:02:57;;;;;;;4.32;2.55;;;8.90;74.40;;;;;;20948847;28;20046;-75
2022/02/04 03:03:55;;;;;;;5.15;2.88;;;8.90;74.30;;;;;;20961032;28;20047;-74
2022/02/04 03:13:56;;;;;;;5.38;2.55;;;8.90;74.40;;;;;;20944295;28;20032;-73
2022/02/04 03:24:02;;;;;;;4.43;2.80;;;8.90;74.40;;;;;;20975688;28;20044;-75
2022/02/04 03:34:03;;;;;;;3.83;2.35;;;8.90;74.40;;;;;;20975986;28;20040;-75
2022/02/04 03:44:04;;;;;;;6.35;2.72;;;8.90;74.40;;;;;;20959161;28;20094;-74
2022/02/04 03:54:06;;;;;;;5.20;3.10;;;8.90;74.30;;;;;;20957610;28;20049;-74
2022/02/04 04:04:06;;;;;;;4.03;2.78;;;8.90;74.40;;;;;;20941015;28;20032;-74
2022/02/04 04:14:07;;;;;;;4.90;2.97;;;8.90;74.40;;;;;;20973319;28;20052;-75
2022/02/04 04:24:07;;;;;;;5.30;2.97;;;8.90;74.40;;;;;;20979078;28;20031;-76
2022/02/04 04:34:08;;;;;;;5.28;2.95;;;9.00;74.40;;;;;;20972857;28;20037;-75
2022/02/04 04:44:34;;;;;;;4.45;2.60;;;8.90;74.40;;;;;;20971796;28;20028;-75
2022/02/04 05:35:44;;;;;;;3.72;2.50;;;9.00;74.30;;;;;;20954354;28;20475;-73
2022/02/04 05:46:00;;;;;;;5.13;2.78;;;8.90;74.20;;;;;;20983849;28;20036;-73
2022/02/04 06:26:41;;;;;;;3.92;2.45;;;9.10;74.40;;;;;;20930342;28;20040;-73
2022/02/04 06:36:42;;;;;;;3.00;2.07;;;9.20;73.50;;;;;;20901727;28;20033;-78
2022/02/04 06:46:42;;;;;;;3.27;1.93;;;9.20;73.40;;;;;;20893972;28;20348;-75
2022/02/04 06:56:43;;;;;;;3.13;2.08;;;9.10;73.30;;;;;;20878223;28;20291;-75
2022/02/04 07:06:52;;;;;;;3.67;2.22;;;9.10;73.40;;;;;;20909127;28;20555;-75
2022/02/04 07:26:56;;;;;;;2.75;1.85;;;9.10;73.50;;;;;;20960240;28;20562;-75
2022/02/04 07:47:16;;;;;;;2.70;2.00;;;9.00;73.50;;;;;;20962873;28;20044;-71
2022/02/04 07:57:16;;;;;;;3.03;1.65;;;9.00;73.60;;;;;;20921202;28;20127;-73
2022/02/04 08:07:17;;;;;;;2.67;2.07;;;9.00;73.60;;;;;;20936035;28;20128;-72
2022/02/04 08:17:38;;;;;;;2.35;1.48;;;9.00;73.60;;;;;;20909734;28;20725;-73
2022/02/04 08:37:58;;;;;;;2.53;1.70;;;9.00;73.70;;;;;;20954928;28;20119;-73
2022/02/04 09:08:26;;;;;;;2.40;1.70;;;9.00;73.80;;;;;;20876501;28;20060;-73
2022/02/04 09:18:39;;;;;;;2.30;1.67;;;9.00;73.80;;;;;;20960364;28;20071;-73
2022/02/04 09:28:40;;;;;;;3.00;1.88;;;9.00;73.90;;;;;;20971942;28;20036;-73
2022/02/04 09:38:40;;;;;;;1.60;1.25;;;9.00;73.90;;;;;;20960349;28;20475;-72
2022/02/04 09:48:43;;;;;;;2.45;1.40;;;9.00;74.00;;;;;;20981610;28;20120;-72
2022/02/04 10:09:30;;;;;;;2.45;1.50;;;9.00;74.00;;;;;;20911717;28;20365;-73
2022/02/04 10:19:42;;;;;;;2.20;1.20;;;9.00;74.10;;;;;;20915970;28;20073;-75
2022/02/04 10:30:04;;;;;;;2.17;1.30;;;9.00;74.10;;;;;;20869296;28;20512;-75
2022/02/04 10:40:37;;;;;;;2.33;1.40;;;9.00;74.10;;;;;;20899480;28;20126;-75
2022/02/04 11:31:40;;;;;;;2.40;1.40;;;9.00;74.20;;;;;;20894467;28;20036;-72
2022/02/04 11:52:36;;;;;;;4.00;1.13;;;9.10;74.20;;;;;;21306484;22;20019;-83
2022/02/04 12:02:37;;;;;;;1.45;0.80;;;9.10;74.10;;;;;;21053170;28;20486;-79
2022/02/04 12:12:54;;;;;;;1.55;1.05;;;9.10;74.00;;;;;;21007442;28;20032;-87
2022/02/04 12:22:57;;;;;;;1.27;0.90;;;9.10;74.00;;;;;;21068050;28;20451;-88
2022/02/04 12:32:58;;;;;;;1.17;0.70;;;9.10;73.90;;;;;;21068398;28;20028;-84
2022/02/04 12:43:00;;;;;;;1.98;1.30;;;9.10;73.90;;;;;;21078883;28;20028;-85
2022/02/04 12:53:01;;;;;;;1.30;0.90;;;9.10;73.90;;;;;;21077032;28;20063;-82
2022/02/04 13:03:13;;;;;;;1.23;0.98;;;9.10;73.80;;;;;;21076230;28;20123;-83
2022/02/04 13:13:14;;;;;;;2.03;1.33;;;9.10;73.80;;;;;;21001191;28;20032;-88
2022/02/04 13:23:22;;;;;;;2.05;0.90;;;9.10;73.90;;;;;;20995335;28;20504;-77
2022/02/04 13:33:29;;;;;;;2.92;1.00;;;9.20;74.10;;;;;;21005720;28;20094;-77
2022/02/04 13:43:38;;;;;;;1.73;0.85;;;9.20;74.20;;;;;;21034093;28;20052;-76
2022/02/04 13:54:02;;;;;;;2.28;1.45;;;9.20;74.30;;;;;;21084188;28;20442;-77
2022/02/04 14:04:04;;;;;;;0.85;0.60;;;9.20;74.30;;;;;;20999281;28;20043;-76
2022/02/04 14:14:26;;;;;;;15.95;2.90;;;9.20;74.40;;;;;;20981042;28;20032;-76
2022/02/04 14:24:28;;;;;;;8.80;1.70;;;9.20;74.60;;;;;;20980078;28;20045;-76
2022/02/04 15:05:38;;;;;;;5.10;0.80;;;9.30;75.10;;;;;;21082869;28;20082;-80
2022/02/04 15:15:39;;;;;;;1.75;0.60;;;9.30;75.20;;;;;;21065583;28;20032;-78
2022/02/04 15:25:42;;;;;;;2.50;1.00;;;9.30;75.20;;;;;;21061450;28;20394;-76
2022/02/04 15:35:44;;;;;;;5.28;1.88;;;9.40;75.10;;;;;;21062095;28;20031;-80
2022/02/04 16:05:52;;;;;;;7.60;3.33;;;10.00;75.50;;;;;;21021547;28;20127;-80
2022/02/04 16:16:03;;;;;;;10.38;3.47;;;10.20;75.50;;;;;;21026375;28;20047;-83
2022/02/04 16:36:26;;;;;;;3.47;2.17;;;10.40;75.50;;;;;;21035085;28;20027;-81
2022/02/04 16:46:27;;;;;;;4.22;2.13;;;10.40;75.40;;;;;;21029608;28;20040;-80
2022/02/04 16:56:30;;;;;;;3.78;2.00;;;10.40;75.40;;;;;;21017515;28;20535;-80
2022/02/04 17:06:37;;;;;;;5.15;2.70;;;10.30;75.30;;;;;;21053461;28;20041;-81
2022/02/04 17:16:42;;;;;;;4.00;2.42;;;10.20;75.20;;;;;;21016002;28;20055;-83
2022/02/04 17:26:42;;;;;;;4.00;2.05;;;10.10;75.20;;;;;;21036135;28;20417;-78
2022/02/04 17:36:44;;;;;;;4.85;2.10;;;10.00;75.10;;;;;;21038334;28;20098;-82
2022/02/04 17:46:48;;;;;;;4.22;2.00;;;10.00;75.00;;;;;;20985987;28;20037;-77
2022/02/04 18:07:10;;;;;;;6.43;1.95;;;9.90;74.80;;;;;;21153029;28;20031;-79
2022/02/04 18:17:11;;;;;;;5.50;1.70;;;9.90;74.80;;;;;;21119503;28;20040;-76
2022/02/04 18:27:13;;;;;;;2.53;1.50;;;9.80;74.80;;;;;;21131004;28;20086;-78
2022/02/04 18:37:18;;;;;;;5.97;1.85;;;9.90;74.80;;;;;;21169216;28;20031;-77
2022/02/04 18:47:33;;;;;;;2.85;1.40;;;9.80;74.80;;;;;;21132148;28;20100;-77
2022/02/04 18:57:33;;;;;;;2.33;1.17;;;9.80;74.80;;;;;;21133306;28;20385;-81
2022/02/04 19:07:48;;;;;;;2.28;1.27;;;9.80;74.80;;;;;;21155052;28;20174;-77
2022/02/04 19:17:59;;;;;;;2.35;1.40;;;9.70;74.80;;;;;;21083053;28;20588;-80
2022/02/04 19:28:00;;;;;;;1.88;1.08;;;9.70;74.80;;;;;;21083141;28;20389;-79
2022/02/04 19:38:02;;;;;;;6.47;0.73;;;9.70;74.90;;;;;;21063783;28;20180;-83
2022/02/04 19:48:09;;;;;;;1.67;0.77;;;9.70;75.00;;;;;;21058372;28;20032;-81
2022/02/04 20:29:15;;;;;;;0.68;0.43;;;9.50;73.70;;;;;;21034032;28;20032;-77
2022/02/04 20:39:18;;;;;;;0.63;0.40;;;9.50;73.50;;;;;;21050195;28;20032;-77
2022/02/04 20:49:18;;;;;;;1.25;0.55;;;9.50;73.40;;;;;;21039954;28;20036;-77
2022/02/04 20:59:19;;;;;;;0.50;0.40;;;9.40;73.20;;;;;;20979464;28;20051;-78
2022/02/04 21:09:59;;;;;;;0.50;0.40;;;9.40;73.00;;;;;;21014694;28;20031;-78
2022/02/04 21:19:43;;;;;;;0.30;0.20;;;9.40;72.90;;;;;;21083796;28;20321;-78
2022/02/04 21:29:45;;;;;;;0.10;0.10;;;9.40;72.80;;;;;;21067534;28;20363;-78
2022/02/04 21:39:48;;;;;;;0.30;0.20;;;9.40;72.70;;;;;;21066028;28;20040;-78
2022/02/04 21:49:50;;;;;;;0.85;0.40;;;9.40;72.70;;;;;;21065264;28;20039;-78
2022/02/04 21:59:51;;;;;;;1.10;0.50;;;9.40;72.70;;;;;;21064566;28;20048;-78
2022/02/04 22:10:22;;;;;;;0.60;0.47;;;9.40;72.70;;;;;;21062691;28;20047;-77
2022/02/04 22:30:44;;;;;;;1.95;0.40;;;9.30;72.60;;;;;;21080543;28;20032;-78
2022/02/04 22:41:12;;;;;;;4.47;0.63;;;9.30;72.60;;;;;;21074182;28;20044;-78
2022/02/04 23:01:38;;;;;;;1.25;0.57;;;9.30;72.50;;;;;;21076696;28;20063;-78
2022/02/04 23:11:41;;;;;;;1.70;0.50;;;9.30;72.50;;;;;;21059369;28;20032;-78
2022/02/04 23:21:56;;;;;;;0.98;0.47;;;9.30;72.50;;;;;;21074541;28;20046;-78
2022/02/04 23:32:22;;;;;;;4.18;0.63;;;9.20;72.50;;;;;;21075142;28;20036;-78
2022/02/04 23:52:43;;;;;;;1.75;0.88;;;9.20;72.50;;;;;;21073303;28;20432;-78
